Time;durP1;ratioP1;P1;durP2;ratioP2;P2;SDS_P1;SDS_P2;PMS_P1;PMS_P2;Temp;Humidity;BMP_temperature;BMP_pressure;BME280_temperature;BME280_humidity;BME280_pressure;Samples;Min_cycle;Max_cycle;Signal;HPM_P1;HPM_P2
2022/12/16 00:04:39;;;;;;;33.23;20.37;;;;;;;-10.17;76.64;99950.69;10527782;28;20665;-79
2022/12/16 00:10:01;;;;;;;33.57;20.27;;;;;;;-10.18;76.32;99946.28;10551751;28;20244;-83
2022/12/16 00:15:23;;;;;;;31.70;20.17;;;;;;;-9.82;74.51;99945.03;10516287;28;20639;-79
2022/12/16 00:20:51;;;;;;;27.93;18.53;;;;;;;-9.93;74.39;99948.38;10508939;28;20245;-80
2022/12/16 00:26:13;;;;;;;28.63;18.20;;;;;;;-9.60;73.24;99943.72;10548763;27;20194;-78
2022/12/16 00:31:36;;;;;;;26.67;18.07;;;;;;;-9.94;74.90;99935.78;10505630;28;20198;-79
2022/12/16 00:36:58;;;;;;;27.77;18.63;;;;;;;-9.56;75.15;99942.22;10533134;28;20226;-81
2022/12/16 00:42:20;;;;;;;24.87;18.80;;;;;;;-9.84;74.25;99949.84;10529188;28;20248;-80
2022/12/16 00:47:42;;;;;;;28.33;17.83;;;;;;;-9.76;73.01;99960.53;10529777;28;20203;-80
2022/12/16 00:53:04;;;;;;;26.87;17.43;;;;;;;-9.81;73.00;99949.41;10521368;28;20258;-80
2022/12/16 00:58:27;;;;;;;26.03;17.70;;;;;;;-9.74;72.15;99952.97;10520118;28;20269;-79
2022/12/16 01:03:49;;;;;;;26.40;16.90;;;;;;;-9.76;72.05;99949.63;10511238;28;20494;-79
2022/12/16 01:09:11;;;;;;;25.13;16.43;;;;;;;-10.70;75.66;99959.81;10496687;28;20195;-79
2022/12/16 01:14:33;;;;;;;23.33;16.53;;;;;;;-10.72;76.36;99961.91;10516903;28;20633;-78
2022/12/16 01:19:55;;;;;;;28.20;16.70;;;;;;;-10.63;77.33;99958.81;10532372;28;20267;-80
2022/12/16 01:25:17;;;;;;;25.63;15.70;;;;;;;-10.43;77.76;99972.47;10525919;28;20190;-79
2022/12/16 01:30:39;;;;;;;22.80;15.37;;;;;;;-9.93;75.30;99975.63;10518371;28;20530;-79
2022/12/16 01:36:06;;;;;;;26.17;15.87;;;;;;;-10.44;77.59;99983.56;10535762;28;20503;-79
2022/12/16 01:41:28;;;;;;;26.90;14.23;;;;;;;-10.29;78.32;99985.06;10524597;28;20610;-79
2022/12/16 01:47:14;;;;;;;24.10;14.77;;;;;;;-10.25;77.67;99978.16;10514533;28;20186;-80
2022/12/16 01:52:41;;;;;;;24.00;15.07;;;;;;;-10.06;77.10;99976.47;10525861;28;20198;-80
2022/12/16 01:58:11;;;;;;;22.30;14.40;;;;;;;-9.65;75.81;99973.50;10510628;28;20218;-79
2022/12/16 02:03:34;;;;;;;23.47;14.00;;;;;;;-10.03;76.74;99988.84;10513996;28;20252;-80
2022/12/16 02:08:59;;;;;;;21.77;13.80;;;;;;;-9.88;74.76;99984.03;10551652;28;20198;-80
2022/12/16 02:14:27;;;;;;;23.77;13.60;;;;;;;-9.70;73.92;99989.69;10509535;28;20559;-79
2022/12/16 02:20:02;;;;;;;19.60;12.90;;;;;;;-9.77;74.99;99985.28;10505481;28;20276;-79
2022/12/16 02:25:40;;;;;;;22.17;12.67;;;;;;;-10.25;73.68;99994.50;10512685;28;20560;-79
2022/12/16 02:31:50;;;;;;;22.80;13.23;;;;;;;-10.26;74.43;99995.53;10481047;28;20533;-80
2022/12/16 02:37:37;;;;;;;19.13;11.87;;;;;;;-10.36;72.99;99997.84;10307662;28;20276;-80
2022/12/16 02:43:04;;;;;;;19.27;11.80;;;;;;;-10.26;73.01;100000.16;10482597;28;20268;-79
2022/12/16 02:48:26;;;;;;;19.77;13.07;;;;;;;-10.33;71.88;100000.13;10503495;28;20487;-80
2022/12/16 02:53:49;;;;;;;25.27;13.50;;;;;;;-10.40;72.46;100010.19;10519021;28;20195;-81
2022/12/16 02:59:16;;;;;;;19.07;13.27;;;;;;;-10.52;71.92;100006.38;10490234;28;20535;-87
2022/12/16 03:05:04;;;;;;;18.47;12.33;;;;;;;-10.46;72.31;100004.72;10511411;28;20484;-80
2022/12/16 03:10:34;;;;;;;18.60;12.27;;;;;;;-10.34;72.27;100006.66;10518920;28;20216;-80
2022/12/16 03:15:57;;;;;;;19.80;12.93;;;;;;;-10.42;71.38;100001.38;10504457;28;20227;-80
2022/12/16 03:21:21;;;;;;;20.47;12.17;;;;;;;-10.40;71.22;100010.19;10493518;28;20268;-80
2022/12/16 03:26:54;;;;;;;19.67;11.87;;;;;;;-10.57;71.23;100003.44;10496673;28;20194;-79
2022/12/16 03:32:36;;;;;;;17.10;11.90;;;;;;;-10.61;72.16;100007.63;10507961;28;20241;-88
2022/12/16 03:38:00;;;;;;;19.97;12.07;;;;;;;-10.36;72.55;100011.47;10490192;28;20223;-83
2022/12/16 03:43:22;;;;;;;18.77;12.70;;;;;;;-10.35;70.26;100007.69;10502387;28;20252;-87
2022/12/16 03:48:49;;;;;;;19.93;12.40;;;;;;;-10.51;69.36;100013.50;10505667;28;20583;-81
2022/12/16 03:54:11;;;;;;;18.30;11.73;;;;;;;-10.33;69.13;100016.47;10484216;28;20676;-82
2022/12/16 03:59:33;;;;;;;19.50;12.63;;;;;;;-10.66;68.88;100021.00;10487969;28;20627;-81
2022/12/16 04:04:56;;;;;;;16.50;11.23;;;;;;;-10.58;70.42;100018.94;10497196;28;20228;-80
2022/12/16 04:24:17;;;;;;;15.60;10.53;;;;;;;-10.70;69.17;100019.72;10504392;28;20275;-81
2022/12/16 04:27:24;;;;;;;19.93;11.93;;;;;;;-10.94;69.62;100040.16;10521248;28;20202;-80
